Time;durP1;ratioP1;P1;durP2;ratioP2;P2;SDS_P1;SDS_P2;PMS_P1;PMS_P2;Temp;Humidity;BMP_temperature;BMP_pressure;BME280_temperature;BME280_humidity;BME280_pressure;Samples;Min_cycle;Max_cycle;Signal;HPM_P1;HPM_P2
2021/09/28 00:01:19;;;;;;;12.05;9.32;;;;;;;4.57;71.67;99255.59;4905558;29;20050;-75
2021/09/28 00:03:45;;;;;;;12.05;9.75;;;;;;;4.52;71.75;99247.94;4905643;29;20094;-74
2021/09/28 00:06:11;;;;;;;11.10;9.57;;;;;;;4.36;72.25;99249.72;4921591;29;20043;-74
2021/09/28 00:08:37;;;;;;;13.45;9.40;;;;;;;4.47;71.89;99265.84;4905431;29;20040;-74
2021/09/28 00:11:03;;;;;;;16.85;10.05;;;;;;;4.43;72.08;99256.38;4921260;29;20440;-75
2021/09/28 00:13:30;;;;;;;12.98;10.10;;;;;;;4.43;72.22;99271.41;4905284;29;20058;-75
2021/09/28 00:15:55;;;;;;;13.32;10.18;;;;;;;4.37;72.24;99254.09;4905596;29;20099;-75
2021/09/28 00:18:22;;;;;;;14.45;10.88;;;;;;;4.38;72.47;99271.66;4905941;29;20060;-75
2021/09/28 00:20:48;;;;;;;14.57;11.38;;;;;;;4.42;72.59;99273.19;4938110;29;20051;-74
2021/09/28 00:23:14;;;;;;;16.08;12.18;;;;;;;4.42;72.85;99262.63;4936671;29;20410;-74
2021/09/28 00:25:41;;;;;;;16.02;12.10;;;;;;;4.36;72.92;99241.78;4905285;29;20074;-75
2021/09/28 00:28:07;;;;;;;18.70;13.00;;;;;;;4.48;72.75;99272.03;4904975;29;20055;-75
2021/09/28 00:30:33;;;;;;;19.08;13.18;;;;;;;4.35;73.32;99277.13;4937540;29;20056;-74
2021/09/28 00:32:59;;;;;;;19.95;13.90;;;;;;;4.46;73.48;99280.03;4904839;29;20050;-75
2021/09/28 00:35:25;;;;;;;21.23;14.30;;;;;;;4.47;73.49;99289.66;4920704;29;20055;-75
2021/09/28 00:37:51;;;;;;;22.20;15.82;;;;;;;4.30;73.78;99273.91;4920439;29;20047;-74
2021/09/28 00:40:16;;;;;;;23.00;15.73;;;;;;;4.32;73.67;99272.00;4905214;29;20035;-74
2021/09/28 00:42:42;;;;;;;25.10;16.25;;;;;;;4.34;73.61;99276.28;4904534;29;20167;-74
2021/09/28 00:45:09;;;;;;;22.85;17.48;;;;;;;4.48;73.34;99288.75;4905052;29;20046;-75
2021/09/28 00:47:35;;;;;;;22.63;15.35;;;;;;;4.37;72.98;99269.97;4920666;29;20074;-75
2021/09/28 00:50:01;;;;;;;21.63;14.80;;;;;;;4.48;72.92;99274.66;4920349;29;20043;-74
2021/09/28 00:52:27;;;;;;;20.95;16.08;;;;;;;4.41;72.78;99282.09;4920460;29;20044;-74
2021/09/28 00:54:53;;;;;;;23.65;15.73;;;;;;;4.36;72.85;99284.13;4904794;29;20044;-75
2021/09/28 00:57:18;;;;;;;21.33;14.75;;;;;;;4.30;73.43;99300.34;4888998;29;20091;-75
2021/09/28 00:59:45;;;;;;;19.02;12.77;;;;;;;4.23;73.37;99283.94;4904302;29;20055;-76
2021/09/28 01:02:12;;;;;;;25.05;15.90;;;;;;;4.12;73.46;99276.59;4904795;29;20047;-75
2021/09/28 01:04:37;;;;;;;21.45;14.70;;;;;;;4.10;73.38;99272.34;4889148;29;20600;-74
2021/09/28 01:07:04;;;;;;;22.98;17.17;;;;;;;4.21;73.46;99290.25;4920312;29;20082;-74
2021/09/28 01:09:31;;;;;;;17.80;13.38;;;;;;;4.23;73.67;99283.09;4904655;29;20072;-75
2021/09/28 01:11:57;;;;;;;23.45;17.65;;;;;;;4.29;73.48;99288.06;4920169;29;20079;-76
2021/09/28 01:14:23;;;;;;;19.27;15.90;;;;;;;4.28;73.44;99291.63;4937231;29;20090;-75
2021/09/28 01:16:49;;;;;;;20.85;15.00;;;;;;;4.31;72.94;99271.16;4920048;29;20106;-75
2021/09/28 01:19:15;;;;;;;20.02;15.70;;;;;;;4.39;73.06;99290.09;4920008;29;20079;-75
2021/09/28 01:21:40;;;;;;;21.40;15.63;;;;;;;4.33;73.15;99292.25;4919819;29;20099;-74
2021/09/28 01:24:06;;;;;;;27.15;15.60;;;;;;;4.39;72.64;99290.09;4920052;29;20095;-74
2021/09/28 01:26:33;;;;;;;21.27;14.15;;;;;;;4.32;72.37;99287.88;4919833;29;20423;-74
2021/09/28 01:28:59;;;;;;;20.90;13.05;;;;;;;4.24;72.13;99263.63;4920003;29;20134;-75
2021/09/28 01:31:25;;;;;;;18.90;14.23;;;;;;;4.37;71.77;99289.34;4904192;29;20051;-76
2021/09/28 01:33:51;;;;;;;17.08;12.10;;;;;;;4.28;71.78;99291.63;4919817;29;20039;-76
2021/09/28 01:36:17;;;;;;;18.45;11.98;;;;;;;4.27;71.36;99268.75;4904134;29;20082;-74
2021/09/28 01:38:43;;;;;;;17.23;12.93;;;;;;;4.37;71.19;99280.56;4888195;29;20044;-75
2021/09/28 01:41:10;;;;;;;16.83;12.70;;;;;;;4.52;70.63;99300.88;4903873;29;20052;-75
2021/09/28 01:43:36;;;;;;;15.20;11.52;;;;;;;4.43;70.27;99282.84;4918951;29;20059;-75
2021/09/28 01:46:02;;;;;;;15.32;11.63;;;;;;;4.43;70.33;99295.22;4903491;29;20043;-75
2021/09/28 01:48:34;;;;;;;13.02;10.40;;;;;;;4.37;70.54;99293.78;4919489;29;20387;-76
2021/09/28 01:51:00;;;;;;;14.95;11.18;;;;;;;4.43;70.78;99309.31;4920148;29;20051;-76
2021/09/28 01:53:26;;;;;;;20.92;11.68;;;;;;;4.41;70.31;99308.56;4903757;29;20051;-76
2021/09/28 01:55:52;;;;;;;15.57;11.65;;;;;;;4.45;69.99;99306.59;4903278;29;20086;-75
2021/09/28 01:58:18;;;;;;;13.13;10.45;;;;;;;4.49;69.66;99308.97;4903659;29;20107;-76
2021/09/28 02:00:44;;;;;;;18.17;11.52;;;;;;;4.55;69.38;99311.28;4903511;29;20050;-75
2021/09/28 02:03:10;;;;;;;12.25;10.10;;;;;;;4.64;68.78;99299.31;4903643;29;20154;-76
2021/09/28 02:05:36;;;;;;;13.75;10.65;;;;;;;4.60;69.11;99308.38;4903621;29;20054;-75
2021/09/28 02:08:02;;;;;;;17.33;11.57;;;;;;;4.70;69.00;99316.66;4872373;29;20047;-77
2021/09/28 02:10:30;;;;;;;14.10;10.90;;;;;;;4.64;68.43;99294.03;4919397;29;20337;-75
2021/09/28 02:12:56;;;;;;;28.63;10.95;;;;;;;4.86;68.12;99309.56;4903932;29;20079;-74
2021/09/28 02:15:22;;;;;;;18.38;11.27;;;;;;;4.82;67.85;99306.22;4887782;29;20043;-78
2021/09/28 02:17:48;;;;;;;19.02;11.15;;;;;;;4.65;68.14;99301.03;4919088;29;20048;-74
2021/09/28 02:20:14;;;;;;;17.75;11.77;;;;;;;4.76;68.41;99318.97;4919027;29;20063;-76
2021/09/28 02:22:40;;;;;;;14.05;10.82;;;;;;;4.84;68.04;99324.66;4887526;29;20048;-77
2021/09/28 02:25:07;;;;;;;23.38;11.25;;;;;;;4.87;67.59;99316.56;4903274;29;20134;-78
2021/09/28 02:27:34;;;;;;;18.23;10.90;;;;;;;4.93;67.40;99320.63;4887540;29;20455;-75
2021/09/28 02:30:00;;;;;;;14.98;11.57;;;;;;;4.85;67.44;99308.72;4903028;29;20040;-75
2021/09/28 02:32:25;;;;;;;17.20;11.40;;;;;;;5.00;67.43;99324.63;4918521;29;20066;-75
2021/09/28 02:34:51;;;;;;;17.95;11.45;;;;;;;5.04;67.62;99323.53;4886828;29;20105;-74
2021/09/28 02:37:17;;;;;;;17.23;12.18;;;;;;;5.09;67.46;99327.63;4886934;29;20081;-75
2021/09/28 02:39:43;;;;;;;18.55;11.73;;;;;;;5.21;67.40;99335.81;4902357;29;20051;-75
2021/09/28 02:42:10;;;;;;;17.48;11.85;;;;;;;5.18;67.25;99335.97;4918420;29;20066;-75
2021/09/28 02:48:55;;;;;;;25.23;12.52;;;;;;;5.18;67.00;99344.78;4935957;29;20134;-75
2021/09/28 02:51:21;;;;;;;15.98;11.85;;;;;;;5.19;67.23;99348.28;4902341;29;20059;-76
2021/09/28 02:53:47;;;;;;;18.02;12.70;;;;;;;5.22;66.89;99329.56;4902543;29;20045;-76
2021/09/28 02:56:13;;;;;;;26.15;14.48;;;;;;;5.32;66.57;99339.53;4902621;29;20052;-76
2021/09/28 02:58:39;;;;;;;21.45;13.07;;;;;;;5.33;66.27;99340.38;4902455;29;20110;-76
2021/09/28 03:01:04;;;;;;;17.75;12.85;;;;;;;5.37;66.21;99347.22;4886882;29;20043;-75
2021/09/28 03:03:30;;;;;;;18.77;13.15;;;;;;;5.28;65.65;99350.41;4902451;29;20134;-76
2021/09/28 03:05:56;;;;;;;21.75;13.70;;;;;;;5.31;66.04;99343.13;4902660;29;20048;-76
2021/09/28 03:08:22;;;;;;;19.63;13.75;;;;;;;5.26;66.13;99344.34;4902440;29;20039;-75
2021/09/28 03:10:48;;;;;;;20.55;14.57;;;;;;;5.31;65.55;99343.13;4902480;29;20048;-76
2021/09/28 03:13:14;;;;;;;24.15;13.20;;;;;;;5.34;64.95;99339.44;4902392;29;20134;-75
2021/09/28 03:15:40;;;;;;;18.35;12.27;;;;;;;5.22;64.92;99332.22;4902616;29;20135;-76
2021/09/28 03:18:06;;;;;;;21.85;12.38;;;;;;;5.33;64.88;99329.78;4918407;29;20565;-76
2021/09/28 03:20:32;;;;;;;15.80;10.15;;;;;;;5.32;64.24;99333.38;4902538;29;20130;-76
2021/09/28 03:22:58;;;;;;;18.35;11.50;;;;;;;5.34;64.41;99342.97;4918308;29;20094;-77
2021/09/28 03:25:24;;;;;;;18.65;11.88;;;;;;;5.35;63.68;99335.88;4902374;29;20047;-76
2021/09/28 03:27:50;;;;;;;18.17;11.52;;;;;;;5.28;63.53;99334.50;4902518;29;20131;-75
2021/09/28 03:30:16;;;;;;;20.45;11.60;;;;;;;5.43;63.28;99338.06;4902241;29;20073;-76
2021/09/28 03:32:42;;;;;;;15.77;11.13;;;;;;;5.45;63.07;99349.41;4902016;29;20043;-75
2021/09/28 03:35:09;;;;;;;16.02;10.45;;;;;;;5.45;62.59;99329.06;4918008;29;20048;-76
2021/09/28 03:37:39;;;;;;;14.82;10.63;;;;;;;5.54;62.43;99327.66;4902598;29;20113;-75
2021/09/28 03:40:06;;;;;;;14.15;8.98;;;;;;;5.52;61.60;99334.84;4902151;29;20142;-75
2021/09/28 03:42:32;;;;;;;17.77;10.35;;;;;;;5.40;61.82;99339.09;4917763;29;20056;-75
2021/09/28 03:44:58;;;;;;;17.15;11.52;;;;;;;5.57;62.43;99346.91;4871364;29;20412;-76
2021/09/28 03:47:24;;;;;;;13.40;9.65;;;;;;;5.63;62.06;99347.47;4886789;29;20099;-76
2021/09/28 03:49:50;;;;;;;10.75;8.77;;;;;;;5.79;61.50;99350.91;4932088;29;20127;-77
2021/09/28 03:52:16;;;;;;;13.23;9.38;;;;;;;5.80;61.67;99340.22;4901909;29;20168;-75
2021/09/28 03:54:42;;;;;;;23.67;9.75;;;;;;;5.88;60.45;99346.88;4902226;29;20550;-76
2021/09/28 03:57:08;;;;;;;14.63;7.68;;;;;;;6.02;60.68;99342.47;4902575;29;20070;-77
2021/09/28 03:59:34;;;;;;;13.38;8.07;;;;;;;6.05;60.26;99355.50;4886258;29;20044;-79
2021/09/28 04:02:00;;;;;;;17.92;8.30;;;;;;;5.99;59.88;99349.75;4886474;29;20391;-76
2021/09/28 04:04:26;;;;;;;12.73;9.10;;;;;;;6.10;59.55;99351.75;4901891;29;20051;-77
2021/09/28 04:06:52;;;;;;;16.08;8.65;;;;;;;6.26;59.57;99369.28;4886201;29;20082;-79
2021/09/28 04:09:18;;;;;;;11.85;8.30;;;;;;;6.29;58.43;99368.25;4890296;29;20101;-76
2021/09/28 04:11:45;;;;;;;14.52;7.78;;;;;;;6.25;58.96;99345.50;4889599;29;20044;-77
2021/09/28 04:14:12;;;;;;;9.38;6.80;;;;;;;6.31;59.59;99361.00;4905653;29;20574;-79
2021/09/28 04:16:38;;;;;;;10.60;7.05;;;;;;;6.27;59.31;99365.66;4905846;29;20050;-78
2021/09/28 04:19:04;;;;;;;14.32;6.85;;;;;;;6.15;58.48;99350.50;4905017;29;20150;-79
2021/09/28 05:12:25;;;;;;;11.33;4.47;;;;;;;6.09;56.26;99403.94;4934001;29;20130;-77
2021/09/28 05:14:51;;;;;;;9.55;5.32;;;;;;;5.88;56.70;99384.84;4886228;29;20296;-77
2021/09/28 05:17:17;;;;;;;10.40;4.90;;;;;;;6.05;56.50;99402.44;4885720;29;20092;-75
2021/09/28 05:19:43;;;;;;;15.90;6.00;;;;;;;6.17;56.45;99395.50;4899825;29;20047;-76
2021/09/28 05:22:09;;;;;;;7.85;5.47;;;;;;;6.15;56.91;99408.03;4885449;29;20099;-76
2021/09/28 05:24:35;;;;;;;9.82;4.88;;;;;;;6.37;56.29;99404.94;4901074;29;20060;-77
2021/09/28 05:27:02;;;;;;;10.57;5.10;;;;;;;6.29;56.03;99400.09;4885051;29;20411;-75
2021/09/28 05:29:28;;;;;;;10.73;5.25;;;;;;;6.46;56.11;99407.84;4884196;29;20051;-76
2021/09/28 05:31:54;;;;;;;6.30;4.18;;;;;;;6.39;54.99;99411.84;4884653;29;20052;-76
2021/09/28 05:34:21;;;;;;;6.70;4.90;;;;;;;6.35;55.50;99404.16;4884613;29;20058;-75
2021/09/28 05:36:47;;;;;;;9.75;5.57;;;;;;;6.41;55.51;99403.78;4915645;29;20063;-76
2021/09/28 05:39:14;;;;;;;12.40;5.90;;;;;;;6.51;55.40;99403.13;4884285;29;20504;-77
2021/09/28 05:41:40;;;;;;;7.07;4.60;;;;;;;6.48;55.10;99403.31;4884295;29;20554;-77
2021/09/28 05:44:06;;;;;;;14.02;4.68;;;;;;;6.53;54.90;99393.25;4883801;29;20048;-77
2021/09/28 05:46:32;;;;;;;9.25;4.38;;;;;;;6.57;55.00;99410.69;4884398;29;20487;-77
2021/09/28 05:48:58;;;;;;;10.77;4.78;;;;;;;6.72;54.88;99413.34;4885196;29;20110;-76
2021/09/28 05:51:27;;;;;;;7.03;4.63;;;;;;;6.62;54.89;99413.09;4885375;29;20131;-76
2021/09/28 05:53:53;;;;;;;16.85;4.88;;;;;;;6.92;55.03;99399.66;4901116;29;20040;-77
2021/09/28 05:56:19;;;;;;;8.18;4.50;;;;;;;7.15;53.76;99399.97;4885353;29;20048;-77
2021/09/28 05:58:45;;;;;;;9.48;4.50;;;;;;;7.22;53.71;99399.47;4885074;29;20151;-77
2021/09/28 06:01:11;;;;;;;7.45;3.40;;;;;;;7.23;52.95;99398.53;4885025;29;20127;-77
2021/09/28 06:03:38;;;;;;;6.32;4.50;;;;;;;6.93;53.90;99401.34;4885548;29;20506;-78
2021/09/28 06:06:04;;;;;;;6.53;3.90;;;;;;;6.98;53.46;99393.94;4901099;29;20122;-79
2021/09/28 06:08:34;;;;;;;8.68;3.72;;;;;;;6.78;53.62;99381.09;4885474;29;20044;-78
2021/09/28 06:11:00;;;;;;;8.68;4.30;;;;;;;6.77;53.45;99387.31;4885147;29;20517;-76
2021/09/28 06:13:27;;;;;;;5.63;4.60;;;;;;;7.03;53.31;99407.81;4894863;29;20115;-77
2021/09/28 06:15:53;;;;;;;14.30;4.10;;;;;;;7.25;52.36;99403.72;4918934;29;20059;-77
2021/09/28 06:18:20;;;;;;;5.78;3.53;;;;;;;7.24;52.84;99408.19;4918978;29;20046;-77
2021/09/28 06:20:46;;;;;;;6.18;4.20;;;;;;;7.32;52.68;99413.00;4919219;29;20566;-77
2021/09/28 06:23:13;;;;;;;12.30;4.32;;;;;;;7.50;52.43;99403.81;4918655;29;20470;-78
2021/09/28 06:25:39;;;;;;;9.38;4.25;;;;;;;7.65;51.77;99398.44;4918629;29;20094;-76
2021/09/28 06:28:05;;;;;;;9.00;4.20;;;;;;;7.62;51.62;99393.31;4903030;29;20071;-77
2021/09/28 06:30:31;;;;;;;11.63;4.70;;;;;;;7.93;51.44;99408.91;4918232;29;20044;-75
2021/09/28 06:32:57;;;;;;;9.65;4.22;;;;;;;8.03;50.85;99420.63;4918748;29;20039;-75
2021/09/28 06:35:24;;;;;;;11.63;4.88;;;;;;;8.10;50.19;99398.94;4902970;29;20050;-76
2021/09/28 06:37:50;;;;;;;8.75;4.70;;;;;;;8.31;50.28;99418.72;4918852;29;20043;-76
2021/09/28 06:40:17;;;;;;;5.82;4.05;;;;;;;8.21;49.99;99431.00;4934652;29;20048;-76
2021/09/28 06:43:01;;;;;;;5.03;3.70;;;;;;;8.11;50.23;99417.44;4908572;29;20054;-76
2021/09/28 06:45:28;;;;;;;6.75;4.18;;;;;;;7.94;50.76;99405.31;4919089;29;20566;-77
2021/09/28 06:47:54;;;;;;;7.18;4.05;;;;;;;8.01;50.80;99416.38;4902995;29;20046;-75
2021/09/28 06:50:20;;;;;;;5.05;3.72;;;;;;;8.24;50.17;99421.00;4918681;29;20095;-76
2021/09/28 06:52:46;;;;;;;10.70;3.90;;;;;;;8.32;49.61;99422.28;4902806;29;20142;-77
2021/09/28 06:55:12;;;;;;;6.78;4.40;;;;;;;8.15;49.86;99413.63;4918633;29;20503;-76
2021/09/28 06:57:38;;;;;;;5.97;4.32;;;;;;;8.15;50.67;99428.75;4918667;29;20040;-77
2021/09/28 07:00:05;;;;;;;10.18;4.10;;;;;;;8.31;50.14;99442.69;4902547;29;20512;-76
2021/09/28 07:02:32;;;;;;;4.70;4.15;;;;;;;8.37;50.05;99415.69;4918615;29;20047;-76
2021/09/28 07:04:58;;;;;;;8.70;4.78;;;;;;;8.59;49.82;99403.53;4918849;29;20505;-75
2021/09/28 07:07:25;;;;;;;10.50;3.90;;;;;;;8.93;48.52;99439.28;4918456;29;20541;-76
2021/09/28 07:09:51;;;;;;;8.65;4.50;;;;;;;8.83;48.26;99425.75;4918537;29;20039;-77
2021/09/28 07:12:17;;;;;;;7.68;4.28;;;;;;;8.64;48.63;99436.00;4916443;29;20059;-80
2021/09/28 07:14:43;;;;;;;13.73;4.15;;;;;;;8.86;48.87;99440.69;4884339;29;20131;-77
2021/09/28 07:17:09;;;;;;;6.80;3.80;;;;;;;8.86;48.32;99444.19;4899728;29;20055;-77
2021/09/28 07:19:36;;;;;;;5.07;4.15;;;;;;;8.80;48.65;99428.66;4884098;29;20056;-77
2021/09/28 07:22:02;;;;;;;7.75;3.88;;;;;;;8.84;48.77;99447.91;4899833;29;20044;-75
2021/09/28 07:24:28;;;;;;;4.40;3.50;;;;;;;8.78;48.77;99437.72;4899649;29;20083;-76
2021/09/28 07:26:54;;;;;;;5.93;3.75;;;;;;;8.88;48.34;99438.78;4883974;29;20460;-76
2021/09/28 07:29:20;;;;;;;8.95;4.10;;;;;;;9.02;48.54;99446.59;4899398;29;20047;-78
2021/09/28 07:31:46;;;;;;;12.55;3.97;;;;;;;9.26;47.60;99460.00;4915409;29;20079;-77
2021/09/28 07:34:12;;;;;;;9.30;3.63;;;;;;;9.20;46.83;99445.28;4883864;29;20496;-75
2021/09/28 07:36:38;;;;;;;6.35;4.03;;;;;;;9.15;47.23;99454.59;4884036;29;20052;-77
2021/09/28 07:39:05;;;;;;;4.70;3.75;;;;;;;9.22;47.63;99447.84;4883547;29;20543;-77
2021/09/28 07:41:31;;;;;;;6.78;4.18;;;;;;;9.09;47.13;99463.03;4883676;29;20040;-78
2021/09/28 07:43:57;;;;;;;4.57;3.25;;;;;;;8.95;47.03;99464.88;4887178;29;20043;-76
2021/09/28 07:46:23;;;;;;;8.88;5.15;;;;;;;8.77;47.83;99468.84;4887486;29;20047;-77
2021/09/28 07:48:49;;;;;;;6.75;4.50;;;;;;;8.86;47.90;99462.00;4903040;29;20040;-77
2021/09/28 07:51:15;;;;;;;11.52;4.40;;;;;;;9.18;47.60;99473.03;4872031;29;20091;-76
2021/09/28 07:53:42;;;;;;;8.07;4.30;;;;;;;9.37;46.92;99467.22;4903179;29;20403;-76
2021/09/28 07:56:08;;;;;;;7.25;3.92;;;;;;;9.30;46.80;99472.16;4886795;29;20491;-77
2021/09/28 07:58:34;;;;;;;6.35;3.58;;;;;;;9.02;46.92;99472.41;4887030;29;20464;-77
2021/09/28 08:01:00;;;;;;;10.73;3.60;;;;;;;8.97;47.21;99478.94;4887394;29;20047;-76
2021/09/28 08:03:27;;;;;;;13.95;4.25;;;;;;;9.08;47.71;99472.00;4887183;29;20451;-76
2021/09/28 08:05:53;;;;;;;11.98;4.07;;;;;;;9.27;46.24;99456.38;4886951;29;20040;-76
2021/09/28 08:08:19;;;;;;;5.65;4.30;;;;;;;9.26;46.10;99468.00;4886811;29;20099;-76
2021/09/28 08:10:45;;;;;;;4.82;3.50;;;;;;;9.24;46.20;99468.09;4887181;29;20099;-77
2021/09/28 08:13:11;;;;;;;4.32;3.47;;;;;;;9.24;46.29;99485.91;4895752;29;20142;-76
2021/09/28 08:15:37;;;;;;;9.13;3.58;;;;;;;9.09;46.59;99474.53;4906262;29;20047;-77
2021/09/28 08:18:03;;;;;;;6.88;3.85;;;;;;;9.27;46.07;99487.53;4921639;29;20051;-76
2021/09/28 08:20:29;;;;;;;7.53;3.30;;;;;;;9.45;44.96;99471.03;4905714;29;20049;-76
2021/09/28 08:22:56;;;;;;;4.45;3.50;;;;;;;9.42;45.04;99473.91;4921319;29;20048;-77
2021/09/28 08:25:32;;;;;;;11.90;4.32;;;;;;;9.42;44.83;99465.06;4921273;29;20047;-77
2021/09/28 08:30:44;;;;;;;7.07;4.18;;;;;;;9.32;45.15;99470.19;4920571;29;20123;-77
2021/09/28 08:33:10;;;;;;;5.72;3.65;;;;;;;9.49;44.89;99488.50;4920840;29;20051;-76
2021/09/28 08:35:35;;;;;;;7.45;4.43;;;;;;;9.59;44.37;99488.69;4904867;29;20055;-77
2021/09/28 08:38:02;;;;;;;8.70;3.67;;;;;;;9.74;44.36;99494.69;4936393;29;20499;-76
2021/09/28 08:40:28;;;;;;;6.93;4.75;;;;;;;9.84;44.17;99493.06;4905006;29;20047;-76
2021/09/28 08:42:55;;;;;;;4.82;3.63;;;;;;;9.79;43.74;99495.22;4920418;29;20291;-77
2021/09/28 08:45:22;;;;;;;6.75;3.60;;;;;;;9.79;43.31;99484.53;4920516;29;20102;-76
2021/09/28 08:47:48;;;;;;;5.03;2.90;;;;;;;9.83;42.86;99499.38;4920106;29;20491;-76
2021/09/28 08:50:20;;;;;;;10.05;2.95;;;;;;;9.79;43.05;99494.38;4920279;29;20039;-76
2021/09/28 08:52:48;;;;;;;6.68;3.50;;;;;;;9.75;43.14;99499.09;4920069;29;20051;-75
2021/09/28 08:55:14;;;;;;;9.52;3.80;;;;;;;9.67;43.36;99480.97;4904510;29;20080;-76
2021/09/28 08:57:41;;;;;;;11.38;3.45;;;;;;;9.97;43.49;99491.19;4920278;29;20047;-77
2021/09/28 09:00:13;;;;;;;7.57;3.08;;;;;;;10.01;41.10;99488.28;4936073;29;20055;-77
2021/09/28 09:02:43;;;;;;;4.72;2.47;;;;;;;10.04;40.67;99480.03;4936010;29;20043;-76
2021/09/28 09:05:17;;;;;;;2.50;2.20;;;;;;;10.20;40.93;99484.09;4889282;29;20043;-76
2021/09/28 09:07:44;;;;;;;3.63;2.53;;;;;;;10.31;40.21;99491.31;4919658;29;20138;-76
2021/09/28 09:10:10;;;;;;;5.32;2.70;;;;;;;10.51;39.81;99497.81;4920528;29;20051;-75
2021/09/28 09:12:41;;;;;;;5.95;2.40;;;;;;;10.40;38.44;99489.75;4919876;29;20521;-76
2021/09/28 09:15:34;;;;;;;8.02;2.40;;;;;;;10.55;38.50;99506.44;4903525;29;20094;-76
2021/09/28 09:18:06;;;;;;;4.35;2.50;;;;;;;10.37;38.21;99496.19;4918845;29;20047;-77
2021/09/28 09:20:37;;;;;;;4.75;2.42;;;;;;;10.47;37.82;99512.38;4920232;29;20513;-77
2021/09/28 09:23:27;;;;;;;2.28;2.00;;;;;;;10.57;37.87;99510.72;4902063;29;20126;-76
2021/09/28 09:26:10;;;;;;;6.13;2.40;;;;;;;10.67;37.23;99500.97;4914127;29;20051;-75
2021/09/28 09:28:55;;;;;;;5.40;2.50;;;;;;;10.72;37.09;99523.81;4917784;29;20114;-75
2021/09/28 09:31:23;;;;;;;6.25;2.40;;;;;;;10.82;36.86;99506.94;4885292;29;20071;-77
2021/09/28 09:33:50;;;;;;;3.50;2.60;;;;;;;10.94;37.11;99522.06;4885234;29;20084;-76
2021/09/28 09:36:17;;;;;;;4.18;2.85;;;;;;;11.04;37.79;99515.97;4900668;29;20052;-77
2021/09/28 09:38:49;;;;;;;4.78;2.83;;;;;;;11.15;36.69;99519.50;4900708;29;20095;-76
2021/09/28 09:41:16;;;;;;;5.18;2.58;;;;;;;11.07;36.52;99510.38;4885554;29;20048;-75
2021/09/28 09:43:43;;;;;;;6.60;2.72;;;;;;;11.16;35.63;99531.03;4917289;29;20047;-76
2021/09/28 09:46:18;;;;;;;5.05;2.75;;;;;;;10.86;36.03;99524.47;4919881;29;20047;-76
2021/09/28 09:48:46;;;;;;;3.53;2.95;;;;;;;10.84;35.90;99520.22;4902396;29;20134;-79
2021/09/28 09:51:14;;;;;;;5.28;2.50;;;;;;;10.65;35.94;99527.00;4919042;29;20183;-79
2021/09/28 09:53:50;;;;;;;8.27;2.83;;;;;;;10.73;36.13;99547.78;4919523;29;20055;-77
2021/09/28 09:56:17;;;;;;;4.97;2.22;;;;;;;10.59;35.75;99531.97;4935321;29;20543;-76
2021/09/28 09:58:43;;;;;;;8.95;2.60;;;;;;;10.56;35.82;99534.88;4919012;29;20047;-77
2021/09/28 10:01:09;;;;;;;6.38;2.30;;;;;;;10.52;35.98;99542.25;4919167;29;20135;-77
2021/09/28 10:03:38;;;;;;;3.50;1.98;;;;;;;10.41;35.68;99545.75;4919624;29;20051;-78
2021/09/28 10:06:06;;;;;;;12.35;2.22;;;;;;;10.45;35.69;99533.88;4919344;29;20040;-75
2021/09/28 10:08:32;;;;;;;6.88;2.08;;;;;;;10.39;35.92;99531.66;4919386;29;20056;-76
2021/09/28 10:10:58;;;;;;;4.03;2.13;;;;;;;10.50;36.05;99538.88;4919158;29;20098;-76
2021/09/28 10:13:46;;;;;;;4.85;2.58;;;;;;;10.51;36.01;99540.56;4903239;29;20146;-76
2021/09/28 10:16:38;;;;;;;4.73;2.40;;;;;;;10.54;36.36;99548.34;4935347;29;20103;-76
2021/09/28 10:19:29;;;;;;;4.82;2.20;;;;;;;10.36;36.37;99539.06;4903356;29;20415;-76
2021/09/28 10:21:56;;;;;;;9.65;2.50;;;;;;;10.37;36.35;99546.97;4903322;29;20106;-77
2021/09/28 10:24:22;;;;;;;11.40;2.10;;;;;;;10.43;36.77;99549.19;4918680;29;20467;-76
2021/09/28 10:27:00;;;;;;;2.90;2.40;;;;;;;10.45;37.11;99552.59;4934366;29;20043;-77
2021/09/28 10:29:50;;;;;;;3.60;2.42;;;;;;;10.75;36.53;99559.19;4918598;29;20059;-76
2021/09/28 10:32:25;;;;;;;5.93;2.55;;;;;;;10.76;35.96;99558.25;4919071;29;20134;-75
2021/09/28 10:35:06;;;;;;;7.10;2.50;;;;;;;10.37;36.61;99552.28;4936138;29;20036;-76
2021/09/28 10:37:39;;;;;;;2.97;2.30;;;;;;;10.49;36.63;99563.88;4918717;29;20415;-77
2021/09/28 10:40:06;;;;;;;7.05;2.53;;;;;;;10.58;37.62;99562.34;4918522;29;20384;-79
2021/09/28 10:42:52;;;;;;;4.22;2.67;;;;;;;10.77;37.33;99567.97;4887972;29;20046;-81
2021/09/28 10:45:39;;;;;;;3.85;2.30;;;;;;;10.83;38.21;99567.50;4920255;29;20050;-83
2021/09/28 10:48:11;;;;;;;14.35;2.67;;;;;;;10.92;37.70;99576.63;4902749;29;20147;-85
2021/09/28 10:50:40;;;;;;;4.15;2.53;;;;;;;10.99;37.76;99560.97;4919746;29;20050;-80
2021/09/28 10:53:18;;;;;;;3.33;2.72;;;;;;;10.98;37.33;99572.59;4903391;29;20043;-82
2021/09/28 10:55:55;;;;;;;2.75;2.40;;;;;;;10.96;38.72;99595.97;4935076;29;20513;-80
2021/09/28 10:58:24;;;;;;;3.78;2.35;;;;;;;10.84;38.53;99579.06;4919649;29;20102;-84
2021/09/28 11:00:53;;;;;;;3.03;2.50;;;;;;;10.84;39.13;99585.25;4919572;29;20067;-80
2021/09/28 11:03:44;;;;;;;2.92;2.30;;;;;;;10.97;38.22;99592.31;4936124;29;20040;-83
2021/09/28 11:06:11;;;;;;;2.90;2.60;;;;;;;10.94;37.82;99596.94;4903664;29;20121;-81
2021/09/28 11:08:37;;;;;;;5.07;2.58;;;;;;;10.94;40.12;99591.59;4918345;29;20051;-81
2021/09/28 11:11:10;;;;;;;5.13;2.35;;;;;;;10.92;39.24;99601.53;4934621;29;20511;-84
2021/09/28 11:13:38;;;;;;;4.45;2.78;;;;;;;10.95;38.13;99592.44;4919302;29;20503;-81
2021/09/28 11:16:07;;;;;;;5.75;2.55;;;;;;;10.92;38.98;99593.53;4918269;29;20054;-81
2021/09/28 11:18:34;;;;;;;5.00;2.65;;;;;;;11.04;38.81;99612.28;4922019;29;20044;-89
2021/09/28 11:21:13;;;;;;;3.25;2.25;;;;;;;10.68;36.51;99606.09;4922059;29;20138;-79
2021/09/28 11:23:40;;;;;;;2.53;2.33;;;;;;;10.64;37.11;99615.31;4906845;29;20498;-78
2021/09/28 11:26:07;;;;;;;3.97;2.58;;;;;;;10.48;36.71;99599.59;4921849;29;20048;-79
2021/09/28 11:28:33;;;;;;;2.60;2.30;;;;;;;10.63;37.02;99625.16;4921922;29;20048;-80
2021/09/28 11:31:01;;;;;;;4.30;2.33;;;;;;;10.52;37.05;99632.28;4906234;29;20036;-79
2021/09/28 11:33:27;;;;;;;7.97;3.08;;;;;;;10.39;36.53;99617.19;4922124;29;20056;-77
2021/09/28 11:36:02;;;;;;;4.60;2.20;;;;;;;10.04;37.67;99624.25;4906893;29;20054;-78
2021/09/28 11:38:33;;;;;;;6.70;2.78;;;;;;;10.14;38.10;99635.97;4922146;29;20043;-78
2021/09/28 11:41:00;;;;;;;5.65;3.08;;;;;;;9.90;38.50;99644.81;4922232;29;20048;-78
2021/09/28 11:43:29;;;;;;;3.67;3.00;;;;;;;9.84;39.07;99636.38;4922545;29;20043;-77
2021/09/28 11:45:57;;;;;;;;;;;;;;;9.67;39.25;99634.94;4906879;29;20049;-78
2021/09/28 11:48:23;;;;;;;5.30;3.55;;;;;;;9.58;39.23;99652.44;4921691;29;19923;-79
2021/09/28 11:50:49;;;;;;;3.97;3.08;;;;;;;9.42;39.32;99666.03;4905687;29;20059;-77
2021/09/28 11:53:15;;;;;;;6.50;3.10;;;;;;;9.29;39.93;99650.97;4890420;29;20046;-77
2021/09/28 11:55:41;;;;;;;4.13;3.25;;;;;;;9.27;39.62;99652.91;4921434;29;20050;-78
2021/09/28 11:58:07;;;;;;;5.32;3.10;;;;;;;9.19;39.65;99646.28;4921378;29;20044;-78
2021/09/28 12:00:34;;;;;;;9.27;3.55;;;;;;;9.29;39.83;99651.84;4902611;29;20052;-77
2021/09/28 12:03:07;;;;;;;9.52;4.97;;;;;;;9.33;40.08;99669.34;4918452;29;20103;-77
2021/09/28 12:08:24;;;;;;;7.28;3.55;;;;;;;9.15;40.61;99668.81;4902755;29;20066;-78
2021/09/28 12:10:51;;;;;;;4.15;3.63;;;;;;;9.12;40.72;99660.16;4918219;29;20107;-79
2021/09/28 12:13:21;;;;;;;9.07;3.33;;;;;;;9.22;40.69;99663.91;4917962;29;20111;-79
2021/09/28 12:16:18;;;;;;;5.72;3.03;;;;;;;9.05;40.70;99664.19;4887116;29;20058;-78
2021/09/28 12:18:44;;;;;;;6.72;4.00;;;;;;;8.96;40.55;99653.22;4901994;29;20080;-77
2021/09/28 12:21:16;;;;;;;7.38;3.40;;;;;;;9.04;40.57;99668.69;4902354;29;20085;-79
2021/09/28 12:23:42;;;;;;;5.18;3.40;;;;;;;9.03;40.91;99666.09;4918318;29;20087;-78
2021/09/28 12:26:25;;;;;;;5.70;3.53;;;;;;;8.90;40.87;99644.78;4918111;29;20126;-78
2021/09/28 12:28:51;;;;;;;10.20;3.90;;;;;;;9.12;40.76;99662.81;4917425;29;20048;-78
2021/09/28 12:31:34;;;;;;;5.47;3.50;;;;;;;9.02;40.36;99664.41;4918102;29;20087;-78
2021/09/28 12:34:00;;;;;;;8.73;3.83;;;;;;;8.87;40.95;99661.81;4932870;29;20043;-78
2021/09/28 12:36:26;;;;;;;5.63;3.22;;;;;;;8.79;41.20;99674.81;4918048;29;20067;-79
2021/09/28 12:39:11;;;;;;;5.40;3.20;;;;;;;8.81;41.36;99688.06;4933662;29;20440;-79